createdAt,value
2018-03-14T00:00:54.887Z,15.33
2018-03-14T00:03:22.029Z,14.60
2018-03-14T00:05:49.107Z,14.00
2018-03-14T00:08:15.432Z,17.07
2018-03-14T00:10:41.739Z,14.57
2018-03-14T00:13:08.828Z,13.97
2018-03-14T00:15:35.142Z,11.30
2018-03-14T00:18:01.495Z,14.33
2018-03-14T00:20:27.803Z,14.00
2018-03-14T00:22:54.162Z,15.40
2018-03-14T00:25:20.455Z,12.17
2018-03-14T00:27:47.516Z,12.60
2018-03-14T00:30:13.827Z,10.60
2018-03-14T00:32:40.926Z,12.63
2018-03-14T00:35:07.271Z,17.30
2018-03-14T00:37:33.600Z,14.33
2018-03-14T00:39:59.896Z,12.80
2018-03-14T00:42:26.202Z,15.37
2018-03-14T00:44:53.256Z,13.80
2018-03-14T00:47:20.324Z,14.30
2018-03-14T00:49:46.620Z,10.87
2018-03-14T00:52:13.741Z,13.30
2018-03-14T00:54:40.100Z,13.10
2018-03-14T00:57:07.156Z,15.60
2018-03-14T00:59:34.193Z,15.87
2018-03-14T01:02:00.514Z,18.07
2018-03-14T01:04:26.854Z,16.47
2018-03-14T01:06:53.963Z,17.03
2018-03-14T01:09:20.359Z,15.80
2018-03-14T01:11:46.687Z,16.13
2018-03-14T01:14:13.751Z,12.70
2018-03-14T01:16:40.073Z,13.53
2018-03-14T01:19:06.376Z,17.40
2018-03-14T01:21:32.726Z,16.50
2018-03-14T01:23:59.788Z,14.40
2018-03-14T01:26:26.112Z,15.43
2018-03-14T01:28:53.155Z,19.03
2018-03-14T01:31:20.171Z,17.07
2018-03-14T01:33:46.514Z,15.80
2018-03-14T01:36:13.562Z,15.93
2018-03-14T01:38:39.901Z,14.23
2018-03-14T01:41:06.207Z,12.70
2018-03-14T01:43:32.541Z,15.30
2018-03-14T01:46:00.326Z,16.50
2018-03-14T01:48:27.385Z,14.77
2018-03-14T01:50:54.440Z,16.43
2018-03-14T01:53:30.463Z,14.50
2018-03-14T01:55:58.308Z,17.87
2018-03-14T01:58:24.640Z,14.80
2018-03-14T02:00:50.983Z,15.57
2018-03-14T02:03:17.322Z,17.63
2018-03-14T02:05:43.588Z,15.00
2018-03-14T02:08:10.596Z,18.87
2018-03-14T02:10:36.931Z,15.93
2018-03-14T02:13:03.223Z,17.03
2018-03-14T02:15:29.536Z,19.23
2018-03-14T02:17:55.838Z,17.90
2018-03-14T02:20:22.176Z,19.03
2018-03-14T02:22:49.248Z,18.73
2018-03-14T02:25:15.575Z,17.37
2018-03-14T02:27:41.890Z,19.97
2018-03-14T02:30:08.923Z,20.53
2018-03-14T02:32:35.281Z,18.13
2018-03-14T02:35:01.632Z,19.20
2018-03-14T02:37:27.915Z,23.17
2018-03-14T02:39:54.217Z,18.13
2018-03-14T02:42:20.586Z,19.43
2018-03-14T02:44:46.869Z,19.77
2018-03-14T02:47:13.144Z,18.10
2018-03-14T02:49:39.479Z,25.10
2018-03-14T02:52:05.791Z,20.97
2018-03-14T02:54:32.088Z,23.47
2018-03-14T02:56:58.401Z,23.73
2018-03-14T02:59:24.712Z,22.30
2018-03-14T03:01:51.040Z,21.17
2018-03-14T03:04:18.884Z,20.07
2018-03-14T03:06:49.129Z,21.87
2018-03-14T03:09:15.431Z,25.83
2018-03-14T03:11:41.721Z,21.23
2018-03-14T03:14:08.035Z,21.80
2018-03-14T03:16:35.071Z,22.43
2018-03-14T03:19:02.131Z,22.60
2018-03-14T03:21:29.195Z,23.50
2018-03-14T03:23:55.520Z,22.50
2018-03-14T03:26:22.635Z,25.37
2018-03-14T03:28:48.966Z,26.53
2018-03-14T03:31:15.253Z,24.33
2018-03-14T03:33:41.543Z,21.60
2018-03-14T03:36:07.853Z,27.03
2018-03-14T03:38:34.158Z,25.63
2018-03-14T03:41:00.452Z,24.07
2018-03-14T03:43:26.770Z,23.70
2018-03-14T03:45:53.795Z,25.30
2018-03-14T03:48:20.095Z,23.90
2018-03-14T03:50:46.448Z,30.90
2018-03-14T03:53:12.783Z,24.77
2018-03-14T03:55:39.116Z,27.70
2018-03-14T03:58:05.447Z,23.87
2018-03-14T04:00:31.815Z,23.17
2018-03-14T04:02:58.861Z,22.63
2018-03-14T04:05:25.870Z,20.27
2018-03-14T04:07:52.193Z,22.17
2018-03-14T04:10:18.503Z,21.80
2018-03-14T04:12:44.832Z,24.83
2018-03-14T04:15:11.189Z,23.47
2018-03-14T04:17:37.457Z,24.03
2018-03-14T04:20:04.564Z,22.37
2018-03-14T04:22:30.869Z,22.03
2018-03-14T04:24:57.192Z,25.10
2018-03-14T04:27:23.493Z,22.00
2018-03-14T04:29:50.642Z,23.10
2018-03-14T04:32:16.946Z,19.90
2018-03-14T04:34:43.254Z,23.00
2018-03-14T04:37:14.381Z,21.67
2018-03-14T04:39:40.880Z,25.40
2018-03-14T04:42:07.915Z,24.43
2018-03-14T04:44:34.224Z,19.53
2018-03-14T04:47:00.521Z,21.23
2018-03-14T04:49:26.855Z,18.57
2018-03-14T04:51:57.310Z,19.50
2018-03-14T04:54:23.632Z,16.20
2018-03-14T04:56:49.977Z,17.03
2018-03-14T04:59:16.293Z,13.20
2018-03-14T05:01:43.557Z,15.30
2018-03-14T05:04:09.861Z,16.40
2018-03-14T05:06:36.171Z,13.10
2018-03-14T05:09:03.263Z,15.00
2018-03-14T05:11:29.581Z,14.50
2018-03-14T05:13:55.909Z,15.77
2018-03-14T05:16:22.227Z,16.30
2018-03-14T05:18:48.499Z,17.33
2018-03-14T05:21:16.832Z,13.17
2018-03-14T05:23:43.172Z,13.27
2018-03-14T05:26:09.491Z,15.47
2018-03-14T05:28:36.554Z,15.90
2018-03-14T05:31:02.868Z,17.43
2018-03-14T05:33:30.876Z,16.40
2018-03-14T05:35:57.876Z,14.30
2018-03-14T05:38:24.876Z,18.37
2018-03-14T05:40:51.184Z,18.67
2018-03-14T05:43:17.465Z,13.70
2018-03-14T05:45:44.828Z,18.20
2018-03-14T05:48:11.140Z,20.60
2018-03-14T05:50:37.429Z,18.47
2018-03-14T05:53:03.745Z,19.50
2018-03-14T05:55:30.155Z,19.63
2018-03-14T05:57:57.169Z,17.77
2018-03-14T06:00:23.496Z,18.57
2018-03-14T06:02:49.855Z,21.00
2018-03-14T06:05:16.171Z,19.43
2018-03-14T06:07:42.506Z,21.00
2018-03-14T06:10:08.846Z,17.40
2018-03-14T06:12:35.208Z,17.07
2018-03-14T06:15:02.254Z,17.70
2018-03-14T06:17:29.300Z,15.43
2018-03-14T06:19:56.351Z,14.67
2018-03-14T06:22:23.396Z,14.33
2018-03-14T06:24:50.457Z,14.70
2018-03-14T06:27:16.766Z,16.50
2018-03-14T06:29:43.569Z,12.80
2018-03-14T06:32:09.851Z,15.40
2018-03-14T06:34:36.901Z,14.37
2018-03-14T06:37:03.907Z,10.17
2018-03-14T06:39:30.241Z,8.80
2018-03-14T06:41:56.512Z,9.83
2018-03-14T06:44:23.586Z,9.73
2018-03-14T06:46:49.879Z,9.97
2018-03-14T06:49:16.920Z,6.83
2018-03-14T06:51:43.246Z,9.30
2018-03-14T06:54:09.494Z,7.80
2018-03-14T06:56:36.512Z,15.20
2018-03-14T06:59:21.440Z,8.53
2018-03-14T07:05:15.651Z,9.10
2018-03-14T07:07:41.935Z,8.57
2018-03-14T07:10:08.267Z,9.70
2018-03-14T07:12:35.331Z,13.17
2018-03-14T07:15:03.280Z,10.37
2018-03-14T07:17:29.572Z,8.67
2018-03-14T07:19:55.931Z,11.97
2018-03-14T07:22:22.299Z,12.73
2018-03-14T07:24:48.608Z,9.30
2018-03-14T07:27:15.028Z,8.40
2018-03-14T07:29:41.428Z,7.87
2018-03-14T07:32:07.761Z,9.70
2018-03-14T07:34:34.056Z,8.80
2018-03-14T07:37:00.376Z,12.47
2018-03-14T07:39:27.386Z,9.77
2018-03-14T07:41:53.652Z,10.63
2018-03-14T07:44:20.678Z,10.20
2018-03-14T07:46:47.732Z,10.53
2018-03-14T07:49:14.029Z,11.97
2018-03-14T07:51:40.321Z,8.73
2018-03-14T07:54:07.379Z,9.80
2018-03-14T07:56:33.694Z,8.37
2018-03-14T07:59:00.775Z,9.40
2018-03-14T08:01:27.783Z,6.27
2018-03-14T08:03:54.799Z,7.53
2018-03-14T08:06:21.133Z,10.10
2018-03-14T08:08:47.403Z,7.23
2018-03-14T08:11:14.402Z,10.50
2018-03-14T08:13:40.949Z,6.90
2018-03-14T08:16:07.063Z,8.80
2018-03-14T08:18:33.402Z,9.93
2018-03-14T08:20:59.728Z,10.20
2018-03-14T08:23:26.038Z,11.47
2018-03-14T08:25:52.334Z,10.30
2018-03-14T08:28:18.640Z,13.70
2018-03-14T08:30:44.969Z,8.87
2018-03-14T08:33:11.311Z,8.47
2018-03-14T08:35:38.939Z,9.47
2018-03-14T08:38:05.219Z,9.17
2018-03-14T08:40:31.547Z,9.43
2018-03-14T08:42:58.602Z,6.33
2018-03-14T08:45:24.903Z,7.30
2018-03-14T08:47:51.236Z,9.07
2018-03-14T08:50:17.556Z,10.63
2018-03-14T08:52:43.865Z,8.30
2018-03-14T08:55:10.141Z,8.77
2018-03-14T08:57:37.193Z,9.90
2018-03-14T09:00:04.198Z,14.83
2018-03-14T09:02:30.517Z,7.97
2018-03-14T09:04:56.776Z,8.57
2018-03-14T09:07:23.150Z,8.43
2018-03-14T09:09:49.435Z,7.80
2018-03-14T09:12:15.784Z,9.67
2018-03-14T09:14:42.793Z,4.73
2018-03-14T09:17:10.037Z,6.60
2018-03-14T09:19:36.315Z,7.60
2018-03-14T09:22:03.400Z,7.43
2018-03-14T09:24:29.685Z,11.33
2018-03-14T09:26:56.017Z,9.10
2018-03-14T09:29:22.351Z,7.80
2018-03-14T09:31:48.683Z,6.20
2018-03-14T09:34:15.073Z,8.47
2018-03-14T09:36:41.439Z,9.43
2018-03-14T09:39:09.227Z,7.20
2018-03-14T09:41:35.550Z,6.53
2018-03-14T09:44:02.578Z,7.87
2018-03-14T09:46:28.836Z,8.10
2018-03-14T09:48:55.816Z,9.20
2018-03-14T09:51:22.107Z,8.50
2018-03-14T09:53:48.383Z,10.40
2018-03-14T09:56:14.671Z,8.83
2018-03-14T09:58:41.676Z,8.30
2018-03-14T10:01:07.951Z,6.63
2018-03-14T10:03:34.943Z,10.03
2018-03-14T10:06:01.268Z,8.67
2018-03-14T10:08:27.603Z,7.93
2018-03-14T10:10:53.899Z,8.83
2018-03-14T10:13:20.223Z,7.20
2018-03-14T10:15:47.257Z,10.73
2018-03-14T10:18:14.326Z,13.43
2018-03-14T10:20:41.306Z,6.60
2018-03-14T10:23:07.595Z,7.23
2018-03-14T10:25:34.729Z,7.17
2018-03-14T10:28:01.012Z,7.83
2018-03-14T10:30:27.304Z,5.87
2018-03-14T10:32:54.352Z,6.30
2018-03-14T10:35:21.430Z,7.23
2018-03-14T10:37:48.468Z,8.30
2018-03-14T10:40:14.780Z,4.80
2018-03-14T10:42:41.058Z,7.60
2018-03-14T10:45:07.320Z,11.70
2018-03-14T10:47:33.628Z,5.70
2018-03-14T10:49:59.898Z,7.23
2018-03-14T10:52:26.926Z,4.87
2018-03-14T10:54:53.233Z,5.10
2018-03-14T10:57:19.557Z,7.97
2018-03-14T10:59:46.795Z,5.60
2018-03-14T11:02:14.954Z,7.00
2018-03-14T11:04:41.293Z,6.77
2018-03-14T11:07:07.613Z,7.90
2018-03-14T11:09:33.889Z,6.60
2018-03-14T11:12:00.182Z,6.53
2018-03-14T11:14:26.524Z,5.70
2018-03-14T11:16:52.798Z,7.50
2018-03-14T11:19:20.570Z,6.00
2018-03-14T11:21:47.645Z,6.93
2018-03-14T11:24:13.929Z,8.27
2018-03-14T11:26:40.232Z,5.63
2018-03-14T11:29:06.591Z,11.77
2018-03-14T11:31:40.056Z,5.53
2018-03-14T11:34:06.392Z,6.43
2018-03-14T11:36:32.712Z,5.67
2018-03-14T11:38:59.008Z,5.60
2018-03-14T11:41:26.070Z,8.23
2018-03-14T11:43:53.120Z,8.30
2018-03-14T11:46:20.178Z,5.43
2018-03-14T11:48:46.506Z,5.00
2018-03-14T11:51:12.765Z,7.60
2018-03-14T11:53:39.060Z,9.80
2018-03-14T11:56:05.325Z,8.67
2018-03-14T11:58:31.565Z,6.00
2018-03-14T12:00:57.897Z,6.23
2018-03-14T12:03:24.196Z,9.37
2018-03-14T12:05:50.523Z,8.43
2018-03-14T12:08:16.807Z,5.30
2018-03-14T12:10:43.130Z,12.70
2018-03-14T12:13:09.423Z,6.40
2018-03-14T12:15:36.472Z,7.93
2018-03-14T12:18:02.786Z,6.70
2018-03-14T12:20:29.059Z,7.50
2018-03-14T12:22:55.367Z,5.93
2018-03-14T12:25:21.678Z,9.07
2018-03-14T12:27:48.022Z,6.87
2018-03-14T12:30:14.342Z,6.30
2018-03-14T12:32:40.682Z,10.17
2018-03-14T12:35:13.919Z,4.80
2018-03-14T12:37:40.220Z,5.50
2018-03-14T12:40:06.484Z,5.90
2018-03-14T12:42:32.807Z,5.40
2018-03-14T12:44:59.125Z,7.30
2018-03-14T12:47:25.409Z,37.67
2018-03-14T12:49:52.412Z,5.00
2018-03-14T12:52:18.717Z,10.43
2018-03-14T12:54:45.023Z,7.30
2018-03-14T12:57:11.341Z,5.63
2018-03-14T12:59:37.606Z,7.27
2018-03-14T13:02:03.943Z,5.50
2018-03-14T13:04:30.288Z,7.13
2018-03-14T13:06:56.623Z,6.13
2018-03-14T13:09:22.967Z,7.33
2018-03-14T13:11:49.356Z,6.20
2018-03-14T13:14:15.727Z,7.93
2018-03-14T13:16:42.028Z,6.80
2018-03-14T13:19:08.352Z,8.83
2018-03-14T13:21:34.686Z,7.60
2018-03-14T13:24:01.040Z,7.70
2018-03-14T13:26:27.415Z,9.73
2018-03-14T13:28:53.709Z,10.10
2018-03-14T13:31:20.056Z,9.20
2018-03-14T13:33:46.383Z,10.00
2018-03-14T13:36:12.724Z,8.07
2018-03-14T13:38:39.036Z,7.67
2018-03-14T13:41:05.395Z,12.53
2018-03-14T13:43:31.700Z,6.53
2018-03-14T13:45:58.006Z,6.60
2018-03-14T13:48:24.342Z,8.80
2018-03-14T13:50:50.640Z,8.43
2018-03-14T13:53:16.990Z,10.27
2018-03-14T13:55:43.259Z,9.83
2018-03-14T13:58:09.584Z,5.60
2018-03-14T14:00:35.918Z,6.00
2018-03-14T14:03:02.239Z,7.43
2018-03-14T14:05:28.506Z,7.60
2018-03-14T14:07:55.691Z,12.07
2018-03-14T14:10:21.991Z,9.40
2018-03-14T14:12:49.041Z,9.90
2018-03-14T14:15:16.103Z,8.03
2018-03-14T14:17:43.277Z,11.60
2018-03-14T14:20:09.599Z,7.10
2018-03-14T14:22:35.891Z,8.80
2018-03-14T14:25:02.713Z,6.63
2018-03-14T14:27:29.098Z,7.03
2018-03-14T14:29:55.496Z,7.70
2018-03-14T14:32:21.780Z,8.20
2018-03-14T14:34:48.135Z,6.00
2018-03-14T14:37:14.454Z,10.93
2018-03-14T14:39:40.738Z,8.03
2018-03-14T14:42:07.767Z,7.70
2018-03-14T14:44:34.029Z,7.23
2018-03-14T14:47:00.340Z,7.27
2018-03-14T14:49:27.394Z,6.90
2018-03-14T14:51:54.425Z,6.80
2018-03-14T14:54:20.773Z,7.97
2018-03-14T14:56:47.823Z,6.13
2018-03-14T14:59:14.132Z,28.53
2018-03-14T15:01:40.456Z,8.37
2018-03-14T15:04:06.749Z,5.37
2018-03-14T15:06:34.141Z,4.60
2018-03-14T15:09:00.396Z,6.50
2018-03-14T15:11:27.401Z,6.07
2018-03-14T15:13:53.718Z,6.80
2018-03-14T15:16:20.006Z,5.70
2018-03-14T15:18:47.064Z,4.73
2018-03-14T15:21:13.486Z,8.47
2018-03-14T15:23:39.788Z,6.33
2018-03-14T15:26:06.107Z,5.70
2018-03-14T15:28:32.402Z,6.70
2018-03-14T15:30:58.742Z,12.00
2018-03-14T15:33:25.065Z,5.73
2018-03-14T15:35:51.353Z,6.87
2018-03-14T15:38:17.644Z,7.73
2018-03-14T15:40:44.032Z,6.93
2018-03-14T15:43:10.439Z,10.40
2018-03-14T15:45:36.820Z,7.17
2018-03-14T15:48:03.175Z,5.77
2018-03-14T15:50:29.504Z,5.90
2018-03-14T15:52:55.865Z,6.57
2018-03-14T15:55:22.151Z,10.50
2018-03-14T15:57:48.453Z,6.80
2018-03-14T16:00:15.502Z,10.10
2018-03-14T16:02:42.623Z,6.47
2018-03-14T16:05:08.942Z,9.23
2018-03-14T16:07:35.252Z,9.20
2018-03-14T16:10:02.398Z,6.97
2018-03-14T16:12:28.694Z,7.97
2018-03-14T16:14:55.678Z,9.87
2018-03-14T16:17:21.972Z,7.60
2018-03-14T16:19:49.093Z,5.70
2018-03-14T16:22:15.389Z,6.93
2018-03-14T16:24:41.665Z,8.13
2018-03-14T16:27:08.775Z,6.90
2018-03-14T16:29:35.293Z,8.57
2018-03-14T16:32:01.631Z,8.33
2018-03-14T16:34:27.933Z,8.07
2018-03-14T16:36:55.037Z,8.70
2018-03-14T16:39:22.193Z,8.50
2018-03-14T16:41:48.474Z,10.83
2018-03-14T16:44:14.777Z,8.60
2018-03-14T16:46:41.722Z,12.83
2018-03-14T16:49:08.028Z,7.07
2018-03-14T16:51:35.862Z,12.50
2018-03-14T16:54:02.172Z,13.60
2018-03-14T16:56:29.282Z,8.10
2018-03-14T16:58:55.574Z,8.67
2018-03-14T17:01:21.857Z,13.83
2018-03-14T17:03:48.962Z,9.23
2018-03-14T17:06:15.269Z,12.07
2018-03-14T17:08:41.590Z,9.53
2018-03-14T17:11:07.973Z,9.00
2018-03-14T17:13:34.221Z,11.80
2018-03-14T17:16:00.521Z,8.23
2018-03-14T17:18:26.871Z,12.97
2018-03-14T17:20:53.160Z,12.03
2018-03-14T17:23:19.444Z,13.00
2018-03-14T17:25:45.724Z,9.50
2018-03-14T17:28:12.057Z,9.03
2018-03-14T17:30:38.339Z,11.53
2018-03-14T17:33:04.644Z,9.47
2018-03-14T17:35:30.981Z,14.43
2018-03-14T17:37:57.312Z,12.30
2018-03-14T17:40:23.653Z,14.33
2018-03-14T17:42:50.023Z,8.80
2018-03-14T17:45:17.052Z,14.93
2018-03-14T17:47:43.436Z,9.53
2018-03-14T17:50:09.826Z,14.37
2018-03-14T17:52:36.896Z,10.33
2018-03-14T17:55:03.184Z,12.10
2018-03-14T17:57:29.500Z,9.93
2018-03-14T17:59:55.761Z,11.00
2018-03-14T18:02:22.068Z,14.37
2018-03-14T18:04:48.390Z,12.77
2018-03-14T18:07:14.708Z,14.70
2018-03-14T18:09:41.041Z,14.03
2018-03-14T18:12:07.396Z,21.33
2018-03-14T18:14:33.710Z,16.20
2018-03-14T18:17:00.019Z,12.93
2018-03-14T18:19:26.262Z,13.10
2018-03-14T18:21:52.514Z,13.77
2018-03-14T18:24:21.517Z,19.00
2018-03-14T18:26:48.670Z,12.40
2018-03-14T18:29:15.054Z,11.00
2018-03-14T18:31:41.463Z,16.10
2018-03-14T18:34:07.805Z,18.30
2018-03-14T18:36:34.214Z,14.57
2018-03-14T18:39:04.048Z,15.10
2018-03-14T18:41:30.410Z,15.63
2018-03-14T18:43:56.778Z,18.30
2018-03-14T18:46:23.108Z,21.70
2018-03-14T18:48:49.546Z,16.10
2018-03-14T18:51:16.833Z,19.00
2018-03-14T18:53:44.195Z,15.33
2018-03-14T18:56:10.525Z,16.57
2018-03-14T18:58:36.830Z,19.03
2018-03-14T19:01:03.172Z,19.37
2018-03-14T19:03:30.221Z,14.93
2018-03-14T19:05:57.284Z,22.40
2018-03-14T19:08:23.652Z,19.07
2018-03-14T19:10:49.992Z,19.73
2018-03-14T19:13:16.427Z,18.70
2018-03-14T19:15:42.798Z,15.77
2018-03-14T19:18:09.898Z,17.50
2018-03-14T19:20:36.275Z,15.47
2018-03-14T19:23:02.650Z,21.20
2018-03-14T19:25:29.013Z,15.10
2018-03-14T19:27:55.380Z,19.93
2018-03-14T19:30:21.766Z,17.63
2018-03-14T19:32:48.193Z,25.23
2018-03-14T19:35:14.600Z,23.07
2018-03-14T19:37:41.065Z,20.33
2018-03-14T19:40:07.427Z,27.83
2018-03-14T19:42:33.791Z,15.57
2018-03-14T19:45:00.118Z,18.07
2018-03-14T19:47:26.551Z,17.37
2018-03-14T19:49:53.031Z,20.67
2018-03-14T19:52:19.608Z,16.20
2018-03-14T19:54:46.688Z,21.03
2018-03-14T19:57:13.096Z,17.43
2018-03-14T19:59:40.348Z,16.13
2018-03-14T20:02:06.693Z,17.80
2018-03-14T20:04:33.147Z,18.20
2018-03-14T20:06:59.585Z,18.70
2018-03-14T20:09:26.068Z,17.23
2018-03-14T20:11:53.324Z,19.47
2018-03-14T20:14:20.429Z,22.90
2018-03-14T20:16:46.748Z,17.60
2018-03-14T20:19:13.339Z,24.33
2018-03-14T20:21:40.468Z,17.67
2018-03-14T20:24:06.801Z,18.97
2018-03-14T20:26:33.298Z,17.00
2018-03-14T20:28:59.644Z,18.63
2018-03-14T20:31:25.975Z,20.87
2018-03-14T20:33:52.437Z,24.10
2018-03-14T20:36:18.873Z,22.20
2018-03-14T20:38:45.275Z,18.03
2018-03-14T20:41:11.665Z,22.40
2018-03-14T20:43:38.786Z,20.80
2018-03-14T20:46:06.002Z,21.53
2018-03-14T20:48:32.504Z,17.90
2018-03-14T20:50:59.312Z,16.00
2018-03-14T20:53:26.430Z,19.30
2018-03-14T20:55:52.799Z,20.67
2018-03-14T20:58:19.079Z,18.57
2018-03-14T21:00:45.400Z,24.63
2018-03-14T21:03:11.764Z,18.47
2018-03-14T21:05:38.115Z,19.53
2018-03-14T21:08:04.417Z,22.37
2018-03-14T21:10:30.779Z,24.20
2018-03-14T21:12:57.135Z,22.13
2018-03-14T21:15:27.096Z,22.90
2018-03-14T21:17:53.575Z,22.40
2018-03-14T21:26:03.973Z,17.40
2018-03-14T21:28:30.558Z,22.07
2018-03-14T21:30:56.881Z,20.67
2018-03-14T21:33:23.292Z,18.90
2018-03-14T21:35:50.428Z,23.67
2018-03-14T21:38:20.023Z,24.10
2018-03-14T21:40:49.645Z,23.20
2018-03-14T21:43:29.577Z,22.13
2018-03-14T21:45:58.076Z,23.30
2018-03-14T21:48:32.635Z,21.00
2018-03-14T21:50:59.237Z,23.20
2018-03-14T21:53:37.055Z,23.97
2018-03-14T21:56:03.427Z,20.73
2018-03-14T21:58:29.744Z,21.00
2018-03-14T22:00:56.033Z,26.10
2018-03-14T22:03:22.361Z,23.63
2018-03-14T22:05:49.514Z,26.37
2018-03-14T22:08:16.658Z,17.03
2018-03-14T22:10:42.932Z,30.23
2018-03-14T22:13:09.385Z,22.50
2018-03-14T22:15:35.803Z,26.50
2018-03-14T22:18:02.122Z,31.63
2018-03-14T22:20:28.520Z,30.53
2018-03-14T22:22:54.855Z,26.13
2018-03-14T22:25:21.201Z,25.60
2018-03-14T22:27:48.306Z,19.00
2018-03-14T22:30:14.624Z,24.03
2018-03-14T22:32:40.936Z,29.13
2018-03-14T22:35:07.556Z,24.20
2018-03-14T22:37:34.611Z,30.23
2018-03-14T22:40:00.985Z,28.40
2018-03-14T22:42:27.259Z,23.30
2018-03-14T22:44:54.318Z,24.23
2018-03-14T22:47:27.596Z,21.57
2018-03-14T22:49:54.674Z,26.17
2018-03-14T22:52:20.989Z,32.20
2018-03-14T22:54:47.284Z,22.90
2018-03-14T22:57:13.782Z,23.60
2018-03-14T22:59:40.070Z,28.80
2018-03-14T23:02:07.097Z,29.80
2018-03-14T23:04:33.401Z,26.03
2018-03-14T23:06:59.729Z,23.03
2018-03-14T23:09:26.167Z,23.40
2018-03-14T23:11:53.280Z,22.40
2018-03-14T23:14:19.605Z,22.83
2018-03-14T23:16:46.643Z,22.33
2018-03-14T23:19:13.728Z,24.47
2018-03-14T23:21:40.096Z,24.17
2018-03-14T23:24:06.434Z,22.43
2018-03-14T23:26:32.787Z,23.00
2018-03-14T23:29:00.121Z,26.00
2018-03-14T23:31:26.482Z,21.07
2018-03-14T23:33:53.515Z,29.03
2018-03-14T23:36:20.645Z,27.83
2018-03-14T23:38:47.017Z,23.37
2018-03-14T23:41:14.097Z,25.37
2018-03-14T23:43:40.466Z,24.53
2018-03-14T23:46:06.813Z,23.47
2018-03-14T23:48:33.153Z,29.90
2018-03-14T23:51:00.201Z,24.83
2018-03-14T23:53:26.509Z,26.07
2018-03-14T23:55:52.965Z,30.30
2018-03-14T23:58:19.999Z,23.73
